首页
METAR-TAF:

METAR-TAF

机场 :

聖誕島機場

圣诞岛, 澳大利亚

纬度: 10-26S, 经度: 105-41E, 海拔: 279米

当前天气观测

该预报发布于44分钟前的02:30 UTC
风速12节,风向东转东南
温度 26°C
湿度 79%
气压 1015 hPa
能见度10公里或以上
多云层高于1800英尺

METAR: YPXM 220230Z AUTO 11012KT 9999 // BKN018 26/22 Q1015 RF00.0/000.0

时间: 10:14 (03:14 UTC)

预报

该预报发布于4小时和11分钟前的23:03 UTC
预报有效从21日的 23点(UTC)到 23日的 00点(UTC)
风速14节,风向东转东南
能见度10公里或以上
多云层高于1600英尺
从 22日的 1200点(UTC)
风速14节,风向
能见度10公里或以上
多云层高于1400英尺

TAF: YPXM 212303Z 2123/2300 11014KT 9999 BKN016 FM221200 10014KT 9999 BKN014

超过4000个机场的气象观测和天气预报(METAR&TAF报告)。

可查询的气象台以黄色和红色小点在地图上表示。

将鼠标移到小点上方,可查看气象台名称。

然后点击查看天气观测和预报。

如需切换地图:点击带黑十字的绿色按钮放大地图;点击带横线的绿色按钮缩小地图;或者点击绿色箭头查看邻近地区的地图。


METAR-TAF: